sensor_id;sensor_type;location;lat;lon;timestamp;temperature;humidity
11083;DHT22;5595;50.186;8.468;2024-02-21T00:00:18;7.50;99.90
11083;DHT22;5595;50.186;8.468;2024-02-21T00:02:46;7.50;99.90
11083;DHT22;5595;50.186;8.468;2024-02-21T00:05:13;7.50;99.90
11083;DHT22;5595;50.186;8.468;2024-02-21T00:07:40;7.40;99.90
11083;DHT22;5595;50.186;8.468;2024-02-21T00:10:07;7.40;99.90
11083;DHT22;5595;50.186;8.468;2024-02-21T00:12:34;7.40;99.90
11083;DHT22;5595;50.186;8.468;2024-02-21T00:15:01;7.40;99.90
11083;DHT22;5595;50.186;8.468;2024-02-21T00:17:28;7.40;99.90
11083;DHT22;5595;50.186;8.468;2024-02-21T00:19:56;7.40;99.90
11083;DHT22;5595;50.186;8.468;2024-02-21T00:22:23;7.40;99.90
11083;DHT22;5595;50.186;8.468;2024-02-21T00:24:50;7.40;99.90
11083;DHT22;5595;50.186;8.468;2024-02-21T00:27:17;7.40;99.90
11083;DHT22;5595;50.186;8.468;2024-02-21T00:29:43;7.40;99.90
11083;DHT22;5595;50.186;8.468;2024-02-21T00:32:10;7.30;99.90
11083;DHT22;5595;50.186;8.468;2024-02-21T00:34:37;7.30;99.90
11083;DHT22;5595;50.186;8.468;2024-02-21T00:37:05;7.30;99.90
11083;DHT22;5595;50.186;8.468;2024-02-21T00:39:32;7.20;99.90
11083;DHT22;5595;50.186;8.468;2024-02-21T00:41:59;7.20;99.90
11083;DHT22;5595;50.186;8.468;2024-02-21T00:44:25;7.20;99.90
11083;DHT22;5595;50.186;8.468;2024-02-21T00:46:52;7.10;99.90
11083;DHT22;5595;50.186;8.468;2024-02-21T00:49:19;7.10;99.90
11083;DHT22;5595;50.186;8.468;2024-02-21T00:51:46;7.10;99.90
11083;DHT22;5595;50.186;8.468;2024-02-21T00:54:15;7.00;99.90
11083;DHT22;5595;50.186;8.468;2024-02-21T00:56:42;7.10;99.90
11083;DHT22;5595;50.186;8.468;2024-02-21T00:59:09;7.00;99.90
11083;DHT22;5595;50.186;8.468;2024-02-21T01:01:36;7.00;99.90
11083;DHT22;5595;50.186;8.468;2024-02-21T01:04:03;7.00;99.90
11083;DHT22;5595;50.186;8.468;2024-02-21T01:06:30;7.00;99.90
11083;DHT22;5595;50.186;8.468;2024-02-21T01:08:57;7.00;99.90
11083;DHT22;5595;50.186;8.468;2024-02-21T01:11:25;7.00;99.90
11083;DHT22;5595;50.186;8.468;2024-02-21T01:13:52;6.90;99.90
11083;DHT22;5595;50.186;8.468;2024-02-21T01:16:18;6.90;99.90
11083;DHT22;5595;50.186;8.468;2024-02-21T01:18:45;6.90;99.90
11083;DHT22;5595;50.186;8.468;2024-02-21T01:21:12;6.90;99.90
11083;DHT22;5595;50.186;8.468;2024-02-21T01:23:39;6.90;99.90
11083;DHT22;5595;50.186;8.468;2024-02-21T01:26:06;7.00;99.90
11083;DHT22;5595;50.186;8.468;2024-02-21T01:28:35;6.90;99.90
11083;DHT22;5595;50.186;8.468;2024-02-21T01:31:03;7.00;99.90
11083;DHT22;5595;50.186;8.468;2024-02-21T01:33:29;7.10;99.90
11083;DHT22;5595;50.186;8.468;2024-02-21T01:36:00;7.00;99.90
11083;DHT22;5595;50.186;8.468;2024-02-21T01:38:27;7.10;99.90
11083;DHT22;5595;50.186;8.468;2024-02-21T01:40:54;7.10;99.90
11083;DHT22;5595;50.186;8.468;2024-02-21T01:43:22;7.10;99.90
11083;DHT22;5595;50.186;8.468;2024-02-21T01:45:50;7.10;99.90
11083;DHT22;5595;50.186;8.468;2024-02-21T01:48:18;7.10;99.90
11083;DHT22;5595;50.186;8.468;2024-02-21T01:50:45;7.10;99.90
11083;DHT22;5595;50.186;8.468;2024-02-21T01:53:13;7.10;99.90
11083;DHT22;5595;50.186;8.468;2024-02-21T01:55:47;7.20;99.90
11083;DHT22;5595;50.186;8.468;2024-02-21T01:58:15;7.20;99.90
11083;DHT22;5595;50.186;8.468;2024-02-21T02:00:43;7.20;99.90
11083;DHT22;5595;50.186;8.468;2024-02-21T02:03:13;7.20;99.90
11083;DHT22;5595;50.186;8.468;2024-02-21T02:05:43;7.20;99.90
11083;DHT22;5595;50.186;8.468;2024-02-21T02:08:10;7.20;99.90
11083;DHT22;5595;50.186;8.468;2024-02-21T02:10:37;7.20;99.90
11083;DHT22;5595;50.186;8.468;2024-02-21T02:13:04;7.30;99.90
11083;DHT22;5595;50.186;8.468;2024-02-21T02:15:38;7.20;99.90
11083;DHT22;5595;50.186;8.468;2024-02-21T02:18:05;7.30;99.90
11083;DHT22;5595;50.186;8.468;2024-02-21T02:20:33;7.30;99.90
11083;DHT22;5595;50.186;8.468;2024-02-21T02:23:03;7.40;99.90
11083;DHT22;5595;50.186;8.468;2024-02-21T02:25:32;7.40;99.90
11083;DHT22;5595;50.186;8.468;2024-02-21T02:28:00;7.40;99.90
11083;DHT22;5595;50.186;8.468;2024-02-21T02:30:27;7.50;99.90
11083;DHT22;5595;50.186;8.468;2024-02-21T02:32:53;7.50;99.90
11083;DHT22;5595;50.186;8.468;2024-02-21T02:35:20;7.50;99.90
11083;DHT22;5595;50.186;8.468;2024-02-21T02:37:50;7.50;99.90
11083;DHT22;5595;50.186;8.468;2024-02-21T02:40:17;7.60;99.90
11083;DHT22;5595;50.186;8.468;2024-02-21T02:42:45;7.50;99.90
11083;DHT22;5595;50.186;8.468;2024-02-21T02:45:13;7.50;99.90
11083;DHT22;5595;50.186;8.468;2024-02-21T02:47:40;7.50;99.90
11083;DHT22;5595;50.186;8.468;2024-02-21T02:50:08;7.50;99.90
11083;DHT22;5595;50.186;8.468;2024-02-21T02:52:34;7.50;99.90
11083;DHT22;5595;50.186;8.468;2024-02-21T02:55:01;7.50;99.90
11083;DHT22;5595;50.186;8.468;2024-02-21T02:57:28;7.50;99.90
11083;DHT22;5595;50.186;8.468;2024-02-21T02:59:56;7.50;99.90
11083;DHT22;5595;50.186;8.468;2024-02-21T03:02:23;7.50;99.90
11083;DHT22;5595;50.186;8.468;2024-02-21T03:04:50;7.50;99.90
11083;DHT22;5595;50.186;8.468;2024-02-21T03:07:17;7.60;99.90
11083;DHT22;5595;50.186;8.468;2024-02-21T03:09:44;7.60;99.90
11083;DHT22;5595;50.186;8.468;2024-02-21T03:12:10;7.60;99.90
11083;DHT22;5595;50.186;8.468;2024-02-21T03:14:37;7.60;99.90
11083;DHT22;5595;50.186;8.468;2024-02-21T03:17:05;7.50;99.90
11083;DHT22;5595;50.186;8.468;2024-02-21T03:19:32;7.60;99.90
11083;DHT22;5595;50.186;8.468;2024-02-21T03:21:59;7.50;99.90
11083;DHT22;5595;50.186;8.468;2024-02-21T03:24:25;7.50;99.90
11083;DHT22;5595;50.186;8.468;2024-02-21T03:26:52;7.50;99.90
11083;DHT22;5595;50.186;8.468;2024-02-21T03:29:19;7.50;99.90
11083;DHT22;5595;50.186;8.468;2024-02-21T03:31:46;7.40;99.90
11083;DHT22;5595;50.186;8.468;2024-02-21T03:34:14;7.40;99.90
11083;DHT22;5595;50.186;8.468;2024-02-21T03:36:41;7.30;99.90
11083;DHT22;5595;50.186;8.468;2024-02-21T03:39:07;7.50;99.90
11083;DHT22;5595;50.186;8.468;2024-02-21T03:41:34;7.40;99.90
11083;DHT22;5595;50.186;8.468;2024-02-21T03:44:01;7.40;99.90
11083;DHT22;5595;50.186;8.468;2024-02-21T03:46:28;7.40;99.90
11083;DHT22;5595;50.186;8.468;2024-02-21T03:48:55;7.40;99.90
11083;DHT22;5595;50.186;8.468;2024-02-21T03:51:23;7.40;99.90
11083;DHT22;5595;50.186;8.468;2024-02-21T03:53:49;7.30;99.90
11083;DHT22;5595;50.186;8.468;2024-02-21T03:56:16;7.30;99.90
11083;DHT22;5595;50.186;8.468;2024-02-21T03:58:43;7.30;99.90
11083;DHT22;5595;50.186;8.468;2024-02-21T04:01:10;7.30;99.90
11083;DHT22;5595;50.186;8.468;2024-02-21T04:03:38;7.30;99.90
11083;DHT22;5595;50.186;8.468;2024-02-21T04:06:04;7.40;99.90
11083;DHT22;5595;50.186;8.468;2024-02-21T04:08:32;7.30;99.90
11083;DHT22;5595;50.186;8.468;2024-02-21T04:10:59;7.40;99.90
11083;DHT22;5595;50.186;8.468;2024-02-21T04:13:26;7.30;99.90
11083;DHT22;5595;50.186;8.468;2024-02-21T04:15:53;7.30;99.90
11083;DHT22;5595;50.186;8.468;2024-02-21T04:18:19;7.30;99.90
11083;DHT22;5595;50.186;8.468;2024-02-21T04:20:47;7.30;99.90
11083;DHT22;5595;50.186;8.468;2024-02-21T04:23:14;7.40;99.90
11083;DHT22;5595;50.186;8.468;2024-02-21T04:25:43;7.40;99.90
11083;DHT22;5595;50.186;8.468;2024-02-21T04:28:10;7.40;99.90
11083;DHT22;5595;50.186;8.468;2024-02-21T04:30:36;7.40;99.90
11083;DHT22;5595;50.186;8.468;2024-02-21T04:33:03;7.30;99.90
11083;DHT22;5595;50.186;8.468;2024-02-21T04:35:30;7.30;99.90
11083;DHT22;5595;50.186;8.468;2024-02-21T04:37:57;7.30;99.90
11083;DHT22;5595;50.186;8.468;2024-02-21T04:40:24;7.30;99.90
11083;DHT22;5595;50.186;8.468;2024-02-21T04:42:52;7.30;99.90
11083;DHT22;5595;50.186;8.468;2024-02-21T04:45:18;7.30;99.90
11083;DHT22;5595;50.186;8.468;2024-02-21T04:47:45;7.30;99.90
11083;DHT22;5595;50.186;8.468;2024-02-21T04:50:12;7.30;99.90
11083;DHT22;5595;50.186;8.468;2024-02-21T04:52:39;7.30;99.90
11083;DHT22;5595;50.186;8.468;2024-02-21T04:55:06;7.30;99.90
11083;DHT22;5595;50.186;8.468;2024-02-21T04:57:33;7.30;99.90
11083;DHT22;5595;50.186;8.468;2024-02-21T05:00:01;7.30;99.90
11083;DHT22;5595;50.186;8.468;2024-02-21T05:02:29;7.30;99.90
11083;DHT22;5595;50.186;8.468;2024-02-21T05:04:55;7.30;99.90
11083;DHT22;5595;50.186;8.468;2024-02-21T05:07:22;7.20;99.90
11083;DHT22;5595;50.186;8.468;2024-02-21T05:09:49;7.20;99.90
11083;DHT22;5595;50.186;8.468;2024-02-21T05:12:16;7.20;99.90
11083;DHT22;5595;50.186;8.468;2024-02-21T05:14:43;7.20;99.90
11083;DHT22;5595;50.186;8.468;2024-02-21T05:17:11;7.20;99.90
11083;DHT22;5595;50.186;8.468;2024-02-21T05:19:37;7.30;99.90
11083;DHT22;5595;50.186;8.468;2024-02-21T05:22:04;7.30;99.90
11083;DHT22;5595;50.186;8.468;2024-02-21T05:24:31;7.30;99.90
11083;DHT22;5595;50.186;8.468;2024-02-21T05:26:58;7.30;99.90
11083;DHT22;5595;50.186;8.468;2024-02-21T05:29:25;7.30;99.90
11083;DHT22;5595;50.186;8.468;2024-02-21T05:31:55;7.30;99.90
11083;DHT22;5595;50.186;8.468;2024-02-21T05:34:24;7.30;99.90
11083;DHT22;5595;50.186;8.468;2024-02-21T05:36:51;7.30;99.90
11083;DHT22;5595;50.186;8.468;2024-02-21T05:39:18;7.30;99.90
11083;DHT22;5595;50.186;8.468;2024-02-21T05:41:45;7.20;99.90
11083;DHT22;5595;50.186;8.468;2024-02-21T05:44:12;7.20;99.90
11083;DHT22;5595;50.186;8.468;2024-02-21T05:46:39;7.10;99.90
11083;DHT22;5595;50.186;8.468;2024-02-21T05:49:05;7.00;99.90
11083;DHT22;5595;50.186;8.468;2024-02-21T05:51:34;7.00;99.90
11083;DHT22;5595;50.186;8.468;2024-02-21T05:54:01;6.90;99.90
11083;DHT22;5595;50.186;8.468;2024-02-21T05:56:28;6.90;99.90
11083;DHT22;5595;50.186;8.468;2024-02-21T05:58:55;6.80;99.90
11083;DHT22;5595;50.186;8.468;2024-02-21T06:01:22;6.80;99.90
11083;DHT22;5595;50.186;8.468;2024-02-21T06:03:48;6.80;99.90
11083;DHT22;5595;50.186;8.468;2024-02-21T06:06:15;6.70;99.90
11083;DHT22;5595;50.186;8.468;2024-02-21T06:08:43;6.80;99.90
11083;DHT22;5595;50.186;8.468;2024-02-21T06:11:10;6.70;99.90
11083;DHT22;5595;50.186;8.468;2024-02-21T06:13:38;6.70;99.90
11083;DHT22;5595;50.186;8.468;2024-02-21T06:16:06;6.80;99.90
11083;DHT22;5595;50.186;8.468;2024-02-21T06:18:35;6.80;99.90
11083;DHT22;5595;50.186;8.468;2024-02-21T06:21:03;6.80;99.90
11083;DHT22;5595;50.186;8.468;2024-02-21T06:23:30;6.80;99.90
11083;DHT22;5595;50.186;8.468;2024-02-21T06:25:58;6.90;99.90
11083;DHT22;5595;50.186;8.468;2024-02-21T06:28:24;6.90;99.90
11083;DHT22;5595;50.186;8.468;2024-02-21T06:30:52;6.90;99.90
11083;DHT22;5595;50.186;8.468;2024-02-21T06:33:18;7.00;99.90
11083;DHT22;5595;50.186;8.468;2024-02-21T06:35:48;7.00;99.90
11083;DHT22;5595;50.186;8.468;2024-02-21T06:38:17;7.00;99.90
11083;DHT22;5595;50.186;8.468;2024-02-21T06:40:44;7.10;99.90
11083;DHT22;5595;50.186;8.468;2024-02-21T06:43:17;7.10;99.90
11083;DHT22;5595;50.186;8.468;2024-02-21T06:45:44;7.10;99.90
11083;DHT22;5595;50.186;8.468;2024-02-21T06:48:13;7.10;99.90
11083;DHT22;5595;50.186;8.468;2024-02-21T06:50:39;7.10;99.90
11083;DHT22;5595;50.186;8.468;2024-02-21T06:53:06;7.20;99.90
11083;DHT22;5595;50.186;8.468;2024-02-21T06:55:33;7.20;99.90
11083;DHT22;5595;50.186;8.468;2024-02-21T06:58:00;7.20;99.90
11083;DHT22;5595;50.186;8.468;2024-02-21T07:00:29;7.20;99.90
11083;DHT22;5595;50.186;8.468;2024-02-21T07:02:56;7.20;99.90
11083;DHT22;5595;50.186;8.468;2024-02-21T07:05:23;7.20;99.90
11083;DHT22;5595;50.186;8.468;2024-02-21T07:07:50;7.30;99.90
11083;DHT22;5595;50.186;8.468;2024-02-21T07:10:17;7.20;99.90
11083;DHT22;5595;50.186;8.468;2024-02-21T07:12:43;7.20;99.90
11083;DHT22;5595;50.186;8.468;2024-02-21T07:15:10;7.30;99.90
11083;DHT22;5595;50.186;8.468;2024-02-21T07:17:38;7.30;99.90
11083;DHT22;5595;50.186;8.468;2024-02-21T07:20:06;7.30;99.90
11083;DHT22;5595;50.186;8.468;2024-02-21T07:22:33;7.30;99.90
11083;DHT22;5595;50.186;8.468;2024-02-21T07:25:00;7.30;99.90
11083;DHT22;5595;50.186;8.468;2024-02-21T07:27:26;7.40;99.90
11083;DHT22;5595;50.186;8.468;2024-02-21T07:29:56;7.40;99.90
11083;DHT22;5595;50.186;8.468;2024-02-21T07:32:23;7.30;99.90
11083;DHT22;5595;50.186;8.468;2024-02-21T07:34:51;7.40;99.90
11083;DHT22;5595;50.186;8.468;2024-02-21T07:37:17;7.30;99.90
11083;DHT22;5595;50.186;8.468;2024-02-21T07:39:44;7.40;99.90
11083;DHT22;5595;50.186;8.468;2024-02-21T07:42:11;7.40;99.90
11083;DHT22;5595;50.186;8.468;2024-02-21T07:44:38;7.40;99.90
11083;DHT22;5595;50.186;8.468;2024-02-21T07:47:04;7.40;99.90
11083;DHT22;5595;50.186;8.468;2024-02-21T07:49:32;7.40;99.90
11083;DHT22;5595;50.186;8.468;2024-02-21T07:52:01;7.40;99.90
11083;DHT22;5595;50.186;8.468;2024-02-21T07:54:28;7.50;99.90
11083;DHT22;5595;50.186;8.468;2024-02-21T07:56:55;7.40;99.90
11083;DHT22;5595;50.186;8.468;2024-02-21T07:59:22;7.40;99.90
11083;DHT22;5595;50.186;8.468;2024-02-21T08:01:49;7.40;99.90
11083;DHT22;5595;50.186;8.468;2024-02-21T08:04:15;7.40;99.90
11083;DHT22;5595;50.186;8.468;2024-02-21T08:06:42;7.50;99.90
11083;DHT22;5595;50.186;8.468;2024-02-21T08:09:12;7.50;99.90
11083;DHT22;5595;50.186;8.468;2024-02-21T08:11:38;7.50;99.90
11083;DHT22;5595;50.186;8.468;2024-02-21T08:14:05;7.50;99.90
11083;DHT22;5595;50.186;8.468;2024-02-21T08:16:33;7.60;99.90
11083;DHT22;5595;50.186;8.468;2024-02-21T08:19:00;7.60;99.90
11083;DHT22;5595;50.186;8.468;2024-02-21T08:21:28;7.60;99.90
11083;DHT22;5595;50.186;8.468;2024-02-21T08:23:55;7.60;99.90
11083;DHT22;5595;50.186;8.468;2024-02-21T08:26:23;7.60;99.90
11083;DHT22;5595;50.186;8.468;2024-02-21T08:28:53;7.50;99.90
11083;DHT22;5595;50.186;8.468;2024-02-21T08:31:20;7.50;99.90
11083;DHT22;5595;50.186;8.468;2024-02-21T08:33:48;7.60;99.90
11083;DHT22;5595;50.186;8.468;2024-02-21T08:36:17;7.50;99.90
11083;DHT22;5595;50.186;8.468;2024-02-21T08:38:45;7.60;99.90
11083;DHT22;5595;50.186;8.468;2024-02-21T08:41:12;7.60;99.90
11083;DHT22;5595;50.186;8.468;2024-02-21T08:43:40;7.60;99.90
11083;DHT22;5595;50.186;8.468;2024-02-21T08:46:07;7.70;99.90
11083;DHT22;5595;50.186;8.468;2024-02-21T08:48:34;7.70;99.90
11083;DHT22;5595;50.186;8.468;2024-02-21T08:51:01;7.70;99.90
11083;DHT22;5595;50.186;8.468;2024-02-21T08:53:27;7.70;99.90
11083;DHT22;5595;50.186;8.468;2024-02-21T08:55:54;7.70;99.90
11083;DHT22;5595;50.186;8.468;2024-02-21T08:58:21;7.70;99.90
11083;DHT22;5595;50.186;8.468;2024-02-21T09:00:50;7.70;99.90
11083;DHT22;5595;50.186;8.468;2024-02-21T09:03:17;7.70;99.90
11083;DHT22;5595;50.186;8.468;2024-02-21T09:05:45;7.70;99.90
11083;DHT22;5595;50.186;8.468;2024-02-21T09:08:12;7.90;99.90
11083;DHT22;5595;50.186;8.468;2024-02-21T09:10:39;7.90;99.90
11083;DHT22;5595;50.186;8.468;2024-02-21T09:13:07;8.00;99.90
11083;DHT22;5595;50.186;8.468;2024-02-21T09:15:34;8.00;99.90
11083;DHT22;5595;50.186;8.468;2024-02-21T09:18:02;8.00;99.90
11083;DHT22;5595;50.186;8.468;2024-02-21T09:20:29;8.00;99.90
11083;DHT22;5595;50.186;8.468;2024-02-21T09:22:56;8.10;99.90
11083;DHT22;5595;50.186;8.468;2024-02-21T09:25:23;8.20;99.90
11083;DHT22;5595;50.186;8.468;2024-02-21T09:27:50;8.40;99.90
11083;DHT22;5595;50.186;8.468;2024-02-21T09:30:17;8.50;99.90
11083;DHT22;5595;50.186;8.468;2024-02-21T09:32:45;8.50;99.90
11083;DHT22;5595;50.186;8.468;2024-02-21T09:35:13;8.60;99.90
11083;DHT22;5595;50.186;8.468;2024-02-21T09:37:40;8.60;99.90
11083;DHT22;5595;50.186;8.468;2024-02-21T09:40:08;8.60;99.90
11083;DHT22;5595;50.186;8.468;2024-02-21T09:42:38;8.60;99.90
11083;DHT22;5595;50.186;8.468;2024-02-21T09:45:08;8.60;99.90
11083;DHT22;5595;50.186;8.468;2024-02-21T09:47:42;8.60;99.90
11083;DHT22;5595;50.186;8.468;2024-02-21T09:50:10;8.70;99.90
11083;DHT22;5595;50.186;8.468;2024-02-21T09:52:39;8.70;99.90
11083;DHT22;5595;50.186;8.468;2024-02-21T09:55:07;8.80;99.90
11083;DHT22;5595;50.186;8.468;2024-02-21T09:57:36;8.90;99.90
11083;DHT22;5595;50.186;8.468;2024-02-21T10:00:05;9.00;99.90
11083;DHT22;5595;50.186;8.468;2024-02-21T10:02:33;9.00;99.90
11083;DHT22;5595;50.186;8.468;2024-02-21T10:05:00;9.10;99.90
11083;DHT22;5595;50.186;8.468;2024-02-21T10:07:29;9.30;99.90
11083;DHT22;5595;50.186;8.468;2024-02-21T10:10:02;9.40;99.90
11083;DHT22;5595;50.186;8.468;2024-02-21T10:12:29;9.60;99.90
11083;DHT22;5595;50.186;8.468;2024-02-21T10:15:00;9.80;99.90
11083;DHT22;5595;50.186;8.468;2024-02-21T10:17:27;9.90;99.90
11083;DHT22;5595;50.186;8.468;2024-02-21T10:19:54;10.00;99.90
11083;DHT22;5595;50.186;8.468;2024-02-21T10:22:21;10.00;99.90
11083;DHT22;5595;50.186;8.468;2024-02-21T10:24:48;10.10;99.90
11083;DHT22;5595;50.186;8.468;2024-02-21T10:27:16;10.00;99.90
11083;DHT22;5595;50.186;8.468;2024-02-21T10:29:49;10.00;99.90
11083;DHT22;5595;50.186;8.468;2024-02-21T10:32:17;10.00;99.90
11083;DHT22;5595;50.186;8.468;2024-02-21T10:34:43;10.00;99.90
11083;DHT22;5595;50.186;8.468;2024-02-21T10:37:11;10.10;99.90
11083;DHT22;5595;50.186;8.468;2024-02-21T10:39:39;10.00;99.90
11083;DHT22;5595;50.186;8.468;2024-02-21T10:42:07;9.90;99.90
11083;DHT22;5595;50.186;8.468;2024-02-21T10:44:39;9.80;99.90
11083;DHT22;5595;50.186;8.468;2024-02-21T10:47:08;9.80;99.90
11083;DHT22;5595;50.186;8.468;2024-02-21T10:49:38;9.70;99.90
11083;DHT22;5595;50.186;8.468;2024-02-21T10:52:13;9.80;99.90
11083;DHT22;5595;50.186;8.468;2024-02-21T10:54:44;9.80;99.90
11083;DHT22;5595;50.186;8.468;2024-02-21T10:57:13;9.80;99.90
11083;DHT22;5595;50.186;8.468;2024-02-21T10:59:44;9.80;99.90
11083;DHT22;5595;50.186;8.468;2024-02-21T11:02:11;9.80;99.90
11083;DHT22;5595;50.186;8.468;2024-02-21T11:04:38;9.90;99.90
11083;DHT22;5595;50.186;8.468;2024-02-21T11:07:07;10.00;99.90
11083;DHT22;5595;50.186;8.468;2024-02-21T11:09:35;10.10;99.90
11083;DHT22;5595;50.186;8.468;2024-02-21T11:12:03;10.10;99.90
11083;DHT22;5595;50.186;8.468;2024-02-21T11:14:31;10.00;99.90
11083;DHT22;5595;50.186;8.468;2024-02-21T11:17:02;10.10;99.90
11083;DHT22;5595;50.186;8.468;2024-02-21T11:19:29;10.20;99.90
11083;DHT22;5595;50.186;8.468;2024-02-21T11:21:57;10.30;99.90
11083;DHT22;5595;50.186;8.468;2024-02-21T11:24:27;10.30;99.90
11083;DHT22;5595;50.186;8.468;2024-02-21T11:26:55;10.40;99.90
11083;DHT22;5595;50.186;8.468;2024-02-21T11:29:25;10.40;99.90
11083;DHT22;5595;50.186;8.468;2024-02-21T11:31:52;10.40;99.90
11083;DHT22;5595;50.186;8.468;2024-02-21T11:34:20;10.60;99.90
11083;DHT22;5595;50.186;8.468;2024-02-21T11:36:48;10.70;99.90
11083;DHT22;5595;50.186;8.468;2024-02-21T11:39:19;10.70;99.90
11083;DHT22;5595;50.186;8.468;2024-02-21T11:41:47;10.80;99.90
11083;DHT22;5595;50.186;8.468;2024-02-21T11:44:14;10.70;99.90
11083;DHT22;5595;50.186;8.468;2024-02-21T11:46:41;10.70;99.90
11083;DHT22;5595;50.186;8.468;2024-02-21T11:49:07;10.60;99.90
11083;DHT22;5595;50.186;8.468;2024-02-21T11:51:36;10.60;99.90
11083;DHT22;5595;50.186;8.468;2024-02-21T11:54:02;10.60;99.90
11083;DHT22;5595;50.186;8.468;2024-02-21T11:56:30;10.70;99.90
11083;DHT22;5595;50.186;8.468;2024-02-21T11:58:59;10.70;99.90
11083;DHT22;5595;50.186;8.468;2024-02-21T12:01:25;10.60;99.90
11083;DHT22;5595;50.186;8.468;2024-02-21T12:03:52;10.60;99.90
11083;DHT22;5595;50.186;8.468;2024-02-21T12:06:19;10.50;99.90
11083;DHT22;5595;50.186;8.468;2024-02-21T12:08:49;10.50;99.90
11083;DHT22;5595;50.186;8.468;2024-02-21T12:11:17;10.60;99.90
11083;DHT22;5595;50.186;8.468;2024-02-21T12:13:44;10.70;99.90
11083;DHT22;5595;50.186;8.468;2024-02-21T12:16:11;10.70;99.90
11083;DHT22;5595;50.186;8.468;2024-02-21T12:18:39;10.70;99.90
11083;DHT22;5595;50.186;8.468;2024-02-21T12:21:06;10.70;99.90
11083;DHT22;5595;50.186;8.468;2024-02-21T12:23:31;10.80;99.90
11083;DHT22;5595;50.186;8.468;2024-02-21T12:26:00;10.90;99.90
11083;DHT22;5595;50.186;8.468;2024-02-21T12:28:27;11.00;99.90
11083;DHT22;5595;50.186;8.468;2024-02-21T12:30:54;11.00;99.90
11083;DHT22;5595;50.186;8.468;2024-02-21T12:33:21;11.00;99.90
11083;DHT22;5595;50.186;8.468;2024-02-21T12:35:48;11.00;99.90
11083;DHT22;5595;50.186;8.468;2024-02-21T12:38:16;11.00;99.90
11083;DHT22;5595;50.186;8.468;2024-02-21T12:40:43;11.00;99.90
11083;DHT22;5595;50.186;8.468;2024-02-21T12:43:11;11.00;99.90
11083;DHT22;5595;50.186;8.468;2024-02-21T12:45:38;11.00;99.90
11083;DHT22;5595;50.186;8.468;2024-02-21T12:48:05;11.00;99.90
11083;DHT22;5595;50.186;8.468;2024-02-21T12:50:32;11.10;99.90
11083;DHT22;5595;50.186;8.468;2024-02-21T12:52:59;11.00;99.90
11083;DHT22;5595;50.186;8.468;2024-02-21T12:55:25;11.00;99.90
11083;DHT22;5595;50.186;8.468;2024-02-21T12:57:52;11.00;99.90
11083;DHT22;5595;50.186;8.468;2024-02-21T13:00:20;10.90;99.90
11083;DHT22;5595;50.186;8.468;2024-02-21T13:02:48;11.00;99.90
11083;DHT22;5595;50.186;8.468;2024-02-21T13:05:15;11.10;99.90
11083;DHT22;5595;50.186;8.468;2024-02-21T13:07:42;11.10;99.90
11083;DHT22;5595;50.186;8.468;2024-02-21T13:10:09;11.10;99.90
11083;DHT22;5595;50.186;8.468;2024-02-21T13:12:36;11.10;99.90
11083;DHT22;5595;50.186;8.468;2024-02-21T13:15:03;11.10;99.90
11083;DHT22;5595;50.186;8.468;2024-02-21T13:17:31;11.00;99.90
11083;DHT22;5595;50.186;8.468;2024-02-21T13:19:58;11.00;99.90
11083;DHT22;5595;50.186;8.468;2024-02-21T13:22:25;11.00;99.90
11083;DHT22;5595;50.186;8.468;2024-02-21T13:24:52;11.00;99.90
11083;DHT22;5595;50.186;8.468;2024-02-21T13:27:19;11.00;99.90
11083;DHT22;5595;50.186;8.468;2024-02-21T13:29:45;11.10;99.90
11083;DHT22;5595;50.186;8.468;2024-02-21T13:32:12;11.10;99.90
11083;DHT22;5595;50.186;8.468;2024-02-21T13:34:40;11.10;99.90
11083;DHT22;5595;50.186;8.468;2024-02-21T13:37:07;11.10;99.90
11083;DHT22;5595;50.186;8.468;2024-02-21T13:39:35;11.10;99.90
11083;DHT22;5595;50.186;8.468;2024-02-21T13:42:02;11.20;99.90
11083;DHT22;5595;50.186;8.468;2024-02-21T13:44:31;11.20;99.90
11083;DHT22;5595;50.186;8.468;2024-02-21T13:46:57;11.20;99.90
11083;DHT22;5595;50.186;8.468;2024-02-21T13:49:24;11.10;99.90
11083;DHT22;5595;50.186;8.468;2024-02-21T13:51:52;11.20;99.90
11083;DHT22;5595;50.186;8.468;2024-02-21T13:54:20;11.30;99.90
11083;DHT22;5595;50.186;8.468;2024-02-21T13:56:47;11.40;99.90
11083;DHT22;5595;50.186;8.468;2024-02-21T13:59:13;11.50;99.90
11083;DHT22;5595;50.186;8.468;2024-02-21T14:01:40;11.50;99.90
11083;DHT22;5595;50.186;8.468;2024-02-21T14:04:08;11.30;99.90
11083;DHT22;5595;50.186;8.468;2024-02-21T14:06:35;11.30;99.90
11083;DHT22;5595;50.186;8.468;2024-02-21T14:09:03;11.30;99.90
11083;DHT22;5595;50.186;8.468;2024-02-21T14:11:31;11.30;99.90
11083;DHT22;5595;50.186;8.468;2024-02-21T14:13:58;11.20;99.90
11083;DHT22;5595;50.186;8.468;2024-02-21T14:16:25;11.20;99.90
11083;DHT22;5595;50.186;8.468;2024-02-21T14:18:52;11.20;99.90
11083;DHT22;5595;50.186;8.468;2024-02-21T14:21:19;11.30;99.90
11083;DHT22;5595;50.186;8.468;2024-02-21T14:23:46;11.20;99.90
11083;DHT22;5595;50.186;8.468;2024-02-21T14:26:14;11.30;99.90
11083;DHT22;5595;50.186;8.468;2024-02-21T14:28:41;11.20;99.90
11083;DHT22;5595;50.186;8.468;2024-02-21T14:31:08;11.10;99.90
11083;DHT22;5595;50.186;8.468;2024-02-21T14:33:35;11.00;99.90
11083;DHT22;5595;50.186;8.468;2024-02-21T14:36:03;10.90;99.90
11083;DHT22;5595;50.186;8.468;2024-02-21T14:38:30;10.80;99.90
11083;DHT22;5595;50.186;8.468;2024-02-21T14:40:56;10.70;99.90
11083;DHT22;5595;50.186;8.468;2024-02-21T14:43:24;10.60;99.90
11083;DHT22;5595;50.186;8.468;2024-02-21T14:45:52;10.60;99.90
11083;DHT22;5595;50.186;8.468;2024-02-21T14:48:18;10.60;99.90
11083;DHT22;5595;50.186;8.468;2024-02-21T14:50:47;10.60;99.90
11083;DHT22;5595;50.186;8.468;2024-02-21T14:53:14;10.60;99.90
11083;DHT22;5595;50.186;8.468;2024-02-21T14:55:40;10.60;99.90
11083;DHT22;5595;50.186;8.468;2024-02-21T14:58:08;10.60;99.90
11083;DHT22;5595;50.186;8.468;2024-02-21T15:00:36;10.60;99.90
11083;DHT22;5595;50.186;8.468;2024-02-21T15:03:03;10.70;99.90
11083;DHT22;5595;50.186;8.468;2024-02-21T15:05:30;10.70;99.90
11083;DHT22;5595;50.186;8.468;2024-02-21T15:07:56;10.70;99.90
11083;DHT22;5595;50.186;8.468;2024-02-21T15:10:24;10.70;99.90
11083;DHT22;5595;50.186;8.468;2024-02-21T15:12:50;10.70;99.90
11083;DHT22;5595;50.186;8.468;2024-02-21T15:15:17;10.60;99.90
11083;DHT22;5595;50.186;8.468;2024-02-21T15:17:45;10.60;99.90
11083;DHT22;5595;50.186;8.468;2024-02-21T15:20:13;10.50;99.90
11083;DHT22;5595;50.186;8.468;2024-02-21T15:22:40;10.50;99.90
11083;DHT22;5595;50.186;8.468;2024-02-21T15:25:07;10.50;99.90
11083;DHT22;5595;50.186;8.468;2024-02-21T15:27:40;10.40;99.90
11083;DHT22;5595;50.186;8.468;2024-02-21T15:30:08;10.30;99.90
11083;DHT22;5595;50.186;8.468;2024-02-21T15:32:35;10.20;99.90
11083;DHT22;5595;50.186;8.468;2024-02-21T15:35:04;10.20;99.90
11083;DHT22;5595;50.186;8.468;2024-02-21T15:37:31;10.10;99.90
11083;DHT22;5595;50.186;8.468;2024-02-21T15:39:58;10.00;99.90
11083;DHT22;5595;50.186;8.468;2024-02-21T15:42:26;10.00;99.90
11083;DHT22;5595;50.186;8.468;2024-02-21T15:44:53;10.00;99.90
11083;DHT22;5595;50.186;8.468;2024-02-21T15:47:20;10.00;99.90
11083;DHT22;5595;50.186;8.468;2024-02-21T15:49:49;10.00;99.90
11083;DHT22;5595;50.186;8.468;2024-02-21T15:52:17;9.90;99.90
11083;DHT22;5595;50.186;8.468;2024-02-21T15:54:44;9.90;99.90
11083;DHT22;5595;50.186;8.468;2024-02-21T15:57:11;9.80;99.90